createdAt,value
2018-03-14T00:00:32.920Z,6.01
2018-03-14T00:01:32.935Z,6.04
2018-03-14T00:02:32.952Z,6.08
2018-03-14T00:03:32.967Z,6.05
2018-03-14T00:04:33.028Z,5.97
2018-03-14T00:05:33.001Z,5.93
2018-03-14T00:06:33.018Z,6.01
2018-03-14T00:07:33.034Z,6.01
2018-03-14T00:08:33.051Z,6.01
2018-03-14T00:09:33.066Z,5.99
2018-03-14T00:10:33.084Z,6.07
2018-03-14T00:11:33.098Z,6.08
2018-03-14T00:12:33.115Z,6.05
2018-03-14T00:13:33.131Z,6.12
2018-03-14T00:14:33.149Z,6.02
2018-03-14T00:15:33.164Z,6.02
2018-03-14T00:16:33.181Z,6.04
2018-03-14T00:17:33.197Z,5.91
2018-03-14T00:18:33.215Z,5.97
2018-03-14T00:19:33.228Z,6.09
2018-03-14T00:20:33.246Z,5.97
2018-03-14T00:21:33.263Z,5.91
2018-03-14T00:22:33.280Z,5.98
2018-03-14T00:23:33.295Z,5.91
2018-03-14T00:24:33.312Z,5.98
2018-03-14T00:25:33.329Z,5.94
2018-03-14T00:26:33.346Z,5.93
2018-03-14T00:27:33.361Z,6.08
2018-03-14T00:28:33.378Z,6.05
2018-03-14T00:29:33.395Z,6.09
2018-03-14T00:30:33.411Z,6.04
2018-03-14T00:31:33.427Z,6.02
2018-03-14T00:32:33.443Z,5.98
2018-03-14T00:33:33.461Z,5.90
2018-03-14T00:34:33.477Z,5.93
2018-03-14T00:35:33.493Z,5.89
2018-03-14T00:36:33.511Z,5.91
2018-03-14T00:37:33.527Z,6.01
2018-03-14T00:38:33.544Z,5.94
2018-03-14T00:39:33.559Z,6.04
2018-03-14T00:40:33.576Z,5.91
2018-03-14T00:41:33.592Z,5.93
2018-03-14T00:42:33.611Z,5.98
2018-03-14T00:43:33.625Z,5.93
2018-03-14T00:44:33.641Z,6.01
2018-03-14T00:45:33.659Z,6.01
2018-03-14T00:46:33.675Z,5.99
2018-03-14T00:47:33.691Z,5.98
2018-03-14T00:48:33.707Z,6.01
2018-03-14T00:49:33.724Z,5.94
2018-03-14T00:50:33.742Z,5.93
2018-03-14T00:51:33.757Z,6.11
2018-03-14T00:52:33.773Z,6.11
2018-03-14T00:53:33.790Z,6.01
2018-03-14T00:54:33.806Z,5.89
2018-03-14T00:55:33.822Z,5.93
2018-03-14T00:56:33.840Z,5.99
2018-03-14T00:57:33.857Z,5.97
2018-03-14T00:58:33.871Z,5.99
2018-03-14T00:59:33.888Z,5.84
2018-03-14T01:00:33.904Z,5.89
2018-03-14T01:01:33.921Z,5.99
2018-03-14T01:02:33.937Z,5.97
2018-03-14T01:03:33.954Z,5.91
2018-03-14T01:04:33.971Z,5.91
2018-03-14T01:05:33.988Z,6.01
2018-03-14T01:06:34.004Z,5.91
2018-03-14T01:07:34.022Z,5.93
2018-03-14T01:08:34.037Z,5.97
2018-03-14T01:09:34.053Z,5.97
2018-03-14T01:10:34.069Z,5.91
2018-03-14T01:11:34.085Z,5.91
2018-03-14T01:12:34.153Z,5.91
2018-03-14T01:13:34.118Z,5.91
2018-03-14T01:14:34.136Z,5.91
2018-03-14T01:15:34.153Z,5.86
2018-03-14T01:16:34.168Z,5.93
2018-03-14T01:17:34.184Z,5.89
2018-03-14T01:18:34.201Z,5.90
2018-03-14T01:19:34.216Z,5.89
2018-03-14T01:20:34.233Z,5.93
2018-03-14T01:21:34.251Z,5.86
2018-03-14T01:22:34.267Z,5.99
2018-03-14T01:23:34.283Z,5.83
2018-03-14T01:24:34.300Z,5.87
2018-03-14T01:25:34.316Z,5.91
2018-03-14T01:26:34.333Z,5.87
2018-03-14T01:27:34.351Z,5.83
2018-03-14T01:28:34.365Z,5.86
2018-03-14T01:29:34.381Z,5.86
2018-03-14T01:30:34.398Z,5.86
2018-03-14T01:31:34.414Z,5.93
2018-03-14T01:32:34.431Z,5.84
2018-03-14T01:33:34.450Z,5.89
2018-03-14T01:34:34.464Z,5.98
2018-03-14T01:35:34.480Z,5.91
2018-03-14T01:36:34.495Z,5.97
2018-03-14T01:37:34.517Z,5.93
2018-03-14T01:38:34.529Z,5.98
2018-03-14T01:39:34.544Z,5.98
2018-03-14T01:40:34.562Z,5.98
2018-03-14T01:41:34.579Z,5.91
2018-03-14T01:42:34.596Z,5.94
2018-03-14T01:43:34.611Z,5.98
2018-03-14T01:44:34.628Z,5.90
2018-03-14T01:45:34.644Z,5.93
2018-03-14T01:46:34.662Z,5.91
2018-03-14T01:47:34.677Z,5.89
2018-03-14T01:48:34.694Z,5.84
2018-03-14T01:49:34.711Z,5.93
2018-03-14T01:50:34.727Z,5.99
2018-03-14T01:51:34.743Z,5.90
2018-03-14T01:52:34.760Z,5.89
2018-03-14T01:53:34.777Z,5.87
2018-03-14T01:54:34.794Z,5.93
2018-03-14T01:55:34.810Z,5.99
2018-03-14T01:56:34.826Z,5.97
2018-03-14T01:57:34.842Z,5.83
2018-03-14T01:58:34.859Z,5.82
2018-03-14T01:59:34.874Z,5.86
2018-03-14T02:00:34.892Z,5.86
2018-03-14T02:01:34.908Z,5.89
2018-03-14T02:02:34.924Z,6.01
2018-03-14T02:03:34.941Z,5.99
2018-03-14T02:04:34.956Z,5.91
2018-03-14T02:05:34.974Z,5.97
2018-03-14T02:06:34.992Z,5.91
2018-03-14T02:07:35.006Z,5.93
2018-03-14T02:08:35.023Z,5.84
2018-03-14T02:09:35.040Z,5.83
2018-03-14T02:10:35.056Z,5.90
2018-03-14T02:11:35.072Z,5.90
2018-03-14T02:12:35.090Z,5.84
2018-03-14T02:13:35.105Z,5.86
2018-03-14T02:14:35.122Z,5.97
2018-03-14T02:15:35.138Z,5.90
2018-03-14T02:16:35.155Z,5.89
2018-03-14T02:17:35.171Z,5.84
2018-03-14T02:18:35.187Z,5.86
2018-03-14T02:19:35.204Z,5.80
2018-03-14T02:20:35.221Z,5.82
2018-03-14T02:21:35.237Z,5.86
2018-03-14T02:22:35.255Z,5.83
2018-03-14T02:23:35.270Z,5.76
2018-03-14T02:24:35.286Z,5.79
2018-03-14T02:25:35.303Z,5.87
2018-03-14T02:26:35.320Z,5.83
2018-03-14T02:27:35.335Z,5.82
2018-03-14T02:28:35.353Z,5.86
2018-03-14T02:29:35.369Z,5.73
2018-03-14T02:30:35.385Z,5.73
2018-03-14T02:31:35.401Z,5.80
2018-03-14T02:32:35.418Z,5.84
2018-03-14T02:33:35.434Z,5.66
2018-03-14T02:34:35.451Z,5.80
2018-03-14T02:35:35.466Z,5.65
2018-03-14T02:36:35.483Z,5.83
2018-03-14T02:37:35.500Z,5.79
2018-03-14T02:38:35.515Z,5.65
2018-03-14T02:39:35.531Z,5.72
2018-03-14T02:40:35.548Z,5.72
2018-03-14T02:41:35.565Z,5.71
2018-03-14T02:42:35.583Z,5.65
2018-03-14T02:43:35.596Z,5.66
2018-03-14T02:44:35.613Z,5.84
2018-03-14T02:45:35.630Z,5.80
2018-03-14T02:46:35.646Z,5.66
2018-03-14T02:47:35.662Z,5.79
2018-03-14T02:48:35.678Z,5.64
2018-03-14T02:49:35.694Z,5.76
2018-03-14T02:50:35.710Z,5.80
2018-03-14T02:51:35.726Z,5.72
2018-03-14T02:52:35.743Z,5.73
2018-03-14T02:53:35.759Z,5.64
2018-03-14T02:54:35.775Z,5.66
2018-03-14T02:55:35.792Z,5.66
2018-03-14T02:56:35.808Z,5.69
2018-03-14T02:57:35.824Z,5.75
2018-03-14T02:58:35.840Z,5.62
2018-03-14T02:59:35.856Z,5.72
2018-03-14T03:00:35.872Z,5.62
2018-03-14T03:01:35.888Z,5.66
2018-03-14T03:02:35.906Z,5.57
2018-03-14T03:03:35.920Z,5.56
2018-03-14T03:04:35.937Z,5.56
2018-03-14T03:05:35.954Z,5.71
2018-03-14T03:06:35.970Z,5.59
2018-03-14T03:07:35.986Z,5.57
2018-03-14T03:08:36.002Z,5.61
2018-03-14T03:09:36.019Z,5.54
2018-03-14T03:10:36.035Z,5.50
2018-03-14T03:11:36.050Z,5.46
2018-03-14T03:12:36.067Z,5.54
2018-03-14T03:13:36.083Z,5.53
2018-03-14T03:14:36.099Z,5.56
2018-03-14T03:15:36.115Z,5.54
2018-03-14T03:16:36.132Z,5.44
2018-03-14T03:17:36.148Z,5.47
2018-03-14T03:18:36.164Z,5.43
2018-03-14T03:19:36.180Z,5.43
2018-03-14T03:20:36.196Z,5.51
2018-03-14T03:21:36.214Z,5.47
2018-03-14T03:22:36.229Z,5.56
2018-03-14T03:23:36.245Z,5.50
2018-03-14T03:24:36.261Z,5.56
2018-03-14T03:25:36.278Z,5.59
2018-03-14T03:26:36.294Z,5.51
2018-03-14T03:27:36.314Z,5.59
2018-03-14T03:28:36.325Z,5.51
2018-03-14T03:29:36.348Z,5.48
2018-03-14T03:30:36.360Z,5.51
2018-03-14T03:31:36.377Z,5.51
2018-03-14T03:32:36.392Z,5.50
2018-03-14T03:33:36.408Z,5.50
2018-03-14T03:34:36.428Z,5.41
2018-03-14T03:35:36.441Z,5.44
2018-03-14T03:36:36.456Z,5.48
2018-03-14T03:37:36.473Z,5.44
2018-03-14T03:38:36.489Z,5.47
2018-03-14T03:39:36.506Z,5.50
2018-03-14T03:40:36.521Z,5.46
2018-03-14T03:41:36.537Z,5.53
2018-03-14T03:42:36.554Z,5.51
2018-03-14T03:43:36.570Z,5.46
2018-03-14T03:44:36.586Z,5.36
2018-03-14T03:45:36.602Z,5.36
2018-03-14T03:46:36.619Z,5.44
2018-03-14T03:47:36.634Z,5.46
2018-03-14T03:48:36.652Z,5.50
2018-03-14T03:49:36.668Z,5.44
2018-03-14T03:50:36.684Z,5.46
2018-03-14T03:51:36.700Z,5.50
2018-03-14T03:52:36.717Z,5.46
2018-03-14T03:53:36.762Z,5.46
2018-03-14T03:54:36.750Z,5.50
2018-03-14T03:55:36.764Z,5.36
2018-03-14T03:56:36.781Z,5.44
2018-03-14T03:57:36.797Z,5.35
2018-03-14T03:58:36.814Z,5.41
2018-03-14T03:59:36.829Z,5.44
2018-03-14T04:00:36.858Z,5.47
2018-03-14T04:01:36.863Z,5.47
2018-03-14T04:02:36.879Z,5.41
2018-03-14T04:03:36.894Z,5.44
2018-03-14T04:04:36.911Z,5.43
2018-03-14T04:05:36.928Z,5.51
2018-03-14T04:06:36.945Z,5.44
2018-03-14T04:07:36.961Z,5.39
2018-03-14T04:08:36.980Z,5.41
2018-03-14T04:09:36.993Z,5.33
2018-03-14T04:10:37.009Z,5.50
2018-03-14T04:11:37.026Z,5.36
2018-03-14T04:12:37.042Z,5.38
2018-03-14T04:13:37.058Z,5.44
2018-03-14T04:14:37.103Z,5.36
2018-03-14T04:15:37.089Z,5.43
2018-03-14T04:16:37.106Z,5.35
2018-03-14T04:17:37.123Z,5.32
2018-03-14T04:18:37.139Z,5.43
2018-03-14T04:19:37.154Z,5.41
2018-03-14T04:20:37.171Z,5.43
2018-03-14T04:21:37.188Z,5.28
2018-03-14T04:22:37.204Z,5.44
2018-03-14T04:23:37.220Z,5.38
2018-03-14T04:24:37.236Z,5.35
2018-03-14T04:25:37.253Z,5.30
2018-03-14T04:26:37.269Z,5.20
2018-03-14T04:27:37.285Z,5.35
2018-03-14T04:28:37.301Z,5.33
2018-03-14T04:29:37.317Z,5.28
2018-03-14T04:30:37.335Z,5.32
2018-03-14T04:31:37.349Z,5.35
2018-03-14T04:32:37.366Z,5.21
2018-03-14T04:33:37.382Z,5.15
2018-03-14T04:34:37.400Z,5.25
2018-03-14T04:35:37.415Z,5.25
2018-03-14T04:36:37.432Z,5.23
2018-03-14T04:37:37.447Z,5.21
2018-03-14T04:38:37.463Z,5.21
2018-03-14T04:39:37.479Z,5.23
2018-03-14T04:40:37.498Z,5.23
2018-03-14T04:41:37.513Z,5.36
2018-03-14T04:42:37.526Z,5.21
2018-03-14T04:43:37.543Z,5.35
2018-03-14T04:44:37.561Z,5.28
2018-03-14T04:45:37.576Z,5.17
2018-03-14T04:46:37.592Z,5.25
2018-03-14T04:47:37.608Z,5.23
2018-03-14T04:48:37.624Z,5.21
2018-03-14T04:49:37.640Z,5.20
2018-03-14T04:50:37.656Z,5.25
2018-03-14T04:51:37.672Z,5.21
2018-03-14T04:52:37.688Z,5.30
2018-03-14T04:53:37.704Z,5.30
2018-03-14T04:54:37.721Z,5.35
2018-03-14T04:55:37.740Z,5.32
2018-03-14T04:56:37.752Z,5.30
2018-03-14T04:57:37.769Z,5.38
2018-03-14T04:58:37.785Z,5.35
2018-03-14T04:59:37.801Z,5.35
2018-03-14T05:00:37.817Z,5.35
2018-03-14T05:01:37.834Z,5.25
2018-03-14T05:02:37.849Z,5.30
2018-03-14T05:03:37.865Z,5.14
2018-03-14T05:04:37.882Z,5.18
2018-03-14T05:05:37.898Z,5.18
2018-03-14T05:06:37.914Z,5.25
2018-03-14T05:07:37.930Z,5.23
2018-03-14T05:08:37.946Z,5.29
2018-03-14T05:09:37.963Z,5.23
2018-03-14T05:10:37.983Z,5.25
2018-03-14T05:11:37.995Z,5.21
2018-03-14T05:12:38.010Z,5.18
2018-03-14T05:13:38.026Z,5.15
2018-03-14T05:14:38.043Z,5.23
2018-03-14T05:15:38.058Z,5.26
2018-03-14T05:16:38.076Z,5.25
2018-03-14T05:17:38.091Z,5.17
2018-03-14T05:18:38.108Z,5.18
2018-03-14T05:19:38.123Z,5.11
2018-03-14T05:20:38.139Z,5.26
2018-03-14T05:21:38.156Z,5.21
2018-03-14T05:22:38.173Z,5.25
2018-03-14T05:23:38.188Z,5.11
2018-03-14T05:24:38.203Z,5.20
2018-03-14T05:25:38.220Z,5.07
2018-03-14T05:26:38.237Z,5.21
2018-03-14T05:27:38.252Z,5.18
2018-03-14T05:28:38.268Z,5.14
2018-03-14T05:29:38.284Z,5.11
2018-03-14T05:30:38.299Z,5.12
2018-03-14T05:31:38.316Z,5.17
2018-03-14T05:32:38.332Z,5.12
2018-03-14T05:33:38.350Z,5.18
2018-03-14T05:34:38.365Z,5.11
2018-03-14T05:35:38.381Z,5.18
2018-03-14T05:36:38.397Z,5.11
2018-03-14T05:37:38.414Z,5.20
2018-03-14T05:38:38.429Z,5.21
2018-03-14T05:39:38.444Z,5.17
2018-03-14T05:40:38.490Z,5.25
2018-03-14T05:41:38.477Z,5.17
2018-03-14T05:42:38.494Z,5.11
2018-03-14T05:43:38.509Z,5.02
2018-03-14T05:44:38.525Z,5.05
2018-03-14T05:45:38.543Z,5.10
2018-03-14T05:46:38.558Z,5.04
2018-03-14T05:47:38.575Z,5.04
2018-03-14T05:48:38.589Z,5.00
2018-03-14T05:49:38.606Z,5.04
2018-03-14T05:50:38.621Z,5.02
2018-03-14T05:51:38.637Z,5.04
2018-03-14T05:52:38.652Z,5.02
2018-03-14T05:53:38.671Z,5.02
2018-03-14T05:54:38.686Z,4.99
2018-03-14T05:55:38.700Z,4.97
2018-03-14T05:56:38.716Z,5.14
2018-03-14T05:57:38.732Z,5.14
2018-03-14T05:58:38.748Z,5.23
2018-03-14T05:59:38.785Z,5.14
2018-03-14T06:00:38.780Z,5.12
2018-03-14T06:01:38.796Z,5.12
2018-03-14T06:02:38.812Z,5.15
2018-03-14T06:03:38.829Z,5.15
2018-03-14T06:04:38.844Z,5.15
2018-03-14T06:05:38.859Z,5.20
2018-03-14T06:06:38.877Z,5.18
2018-03-14T06:07:38.891Z,5.05
2018-03-14T06:08:38.907Z,5.04
2018-03-14T06:09:38.925Z,5.08
2018-03-14T06:10:38.943Z,5.05
2018-03-14T06:11:38.956Z,5.15
2018-03-14T06:12:38.974Z,5.08
2018-03-14T06:13:38.988Z,5.11
2018-03-14T06:14:39.004Z,5.14
2018-03-14T06:15:39.019Z,5.21
2018-03-14T06:16:39.035Z,5.25
2018-03-14T06:17:39.055Z,5.18
2018-03-14T06:18:39.067Z,5.18
2018-03-14T06:19:39.082Z,5.17
2018-03-14T06:20:39.099Z,5.25
2018-03-14T06:21:39.114Z,5.14
2018-03-14T06:22:39.153Z,5.30
2018-03-14T06:23:39.146Z,5.30
2018-03-14T06:24:39.163Z,5.32
2018-03-14T06:25:39.179Z,5.35
2018-03-14T06:26:39.195Z,5.33
2018-03-14T06:27:39.210Z,5.29
2018-03-14T06:28:39.226Z,5.41
2018-03-14T06:29:39.241Z,5.46
2018-03-14T06:30:39.260Z,5.35
2018-03-14T06:31:39.274Z,5.32
2018-03-14T06:32:39.290Z,5.38
2018-03-14T06:33:39.308Z,5.38
2018-03-14T06:34:39.323Z,5.44
2018-03-14T06:35:39.360Z,5.44
2018-03-14T06:36:39.354Z,5.35
2018-03-14T06:37:39.371Z,5.38
2018-03-14T06:38:39.386Z,5.43
2018-03-14T06:39:39.401Z,5.48
2018-03-14T06:40:39.418Z,5.46
2018-03-14T06:41:39.435Z,5.44
2018-03-14T06:42:39.451Z,5.50
2018-03-14T06:43:39.466Z,5.38
2018-03-14T06:44:39.483Z,5.47
2018-03-14T06:45:39.503Z,5.53
2018-03-14T06:46:39.565Z,5.64
2018-03-14T06:47:39.531Z,5.53
2018-03-14T06:48:39.547Z,5.50
2018-03-14T06:49:39.564Z,5.57
2018-03-14T06:50:39.581Z,5.48
2018-03-14T06:51:39.596Z,5.56
2018-03-14T06:52:39.612Z,5.54
2018-03-14T06:53:39.628Z,5.65
2018-03-14T06:54:39.645Z,5.68
2018-03-14T06:55:39.661Z,5.59
2018-03-14T06:56:39.679Z,5.64
2018-03-14T06:57:39.693Z,5.68
2018-03-14T06:58:39.711Z,5.65
2018-03-14T06:59:39.725Z,5.56
2018-03-14T07:00:39.741Z,5.57
2018-03-14T07:01:39.758Z,5.47
2018-03-14T07:02:39.774Z,5.51
2018-03-14T07:03:39.790Z,5.56
2018-03-14T07:04:39.807Z,5.50
2018-03-14T07:05:39.823Z,5.68
2018-03-14T07:06:39.847Z,5.79
2018-03-14T07:07:39.855Z,5.66
2018-03-14T07:08:39.873Z,5.71
2018-03-14T07:09:39.887Z,5.75
2018-03-14T07:10:39.904Z,5.62
2018-03-14T07:11:39.920Z,5.75
2018-03-14T07:12:39.936Z,5.72
2018-03-14T07:13:39.954Z,5.69
2018-03-14T07:14:39.970Z,5.72
2018-03-14T07:15:39.985Z,5.84
2018-03-14T07:16:40.002Z,5.82
2018-03-14T07:17:40.018Z,5.80
2018-03-14T07:18:40.035Z,5.86
2018-03-14T07:19:40.050Z,5.83
2018-03-14T07:20:40.072Z,5.93
2018-03-14T07:21:40.084Z,6.02
2018-03-14T07:22:40.101Z,5.90
2018-03-14T07:23:40.116Z,5.93
2018-03-14T07:24:40.133Z,5.97
2018-03-14T07:25:40.151Z,5.89
2018-03-14T07:26:40.165Z,5.90
2018-03-14T07:27:40.181Z,5.93
2018-03-14T07:28:40.200Z,5.98
2018-03-14T07:29:40.215Z,5.90
2018-03-14T07:30:40.232Z,5.99
2018-03-14T07:31:40.249Z,6.07
2018-03-14T07:32:40.264Z,5.94
2018-03-14T07:33:40.280Z,6.02
2018-03-14T07:34:40.297Z,5.91
2018-03-14T07:35:40.316Z,5.93
2018-03-14T07:36:40.330Z,5.91
2018-03-14T07:37:40.347Z,5.98
2018-03-14T07:38:40.363Z,6.02
2018-03-14T07:39:40.381Z,6.04
2018-03-14T07:40:40.397Z,6.05
2018-03-14T07:41:40.412Z,6.07
2018-03-14T07:42:40.431Z,6.05
2018-03-14T07:43:40.446Z,6.08
2018-03-14T07:44:40.493Z,6.12
2018-03-14T07:45:40.482Z,6.20
2018-03-14T07:46:40.497Z,6.24
2018-03-14T07:47:40.518Z,6.28
2018-03-14T07:48:40.530Z,6.30
2018-03-14T07:49:40.546Z,6.30
2018-03-14T07:50:40.564Z,6.30
2018-03-14T07:51:40.580Z,6.35
2018-03-14T07:52:40.645Z,6.35
2018-03-14T07:53:40.614Z,6.24
2018-03-14T07:54:40.630Z,6.42
2018-03-14T07:55:40.647Z,6.35
2018-03-14T07:56:40.664Z,6.31
2018-03-14T07:57:40.682Z,6.33
2018-03-14T07:58:40.698Z,6.33
2018-03-14T07:59:40.714Z,6.14
2018-03-14T08:00:40.732Z,6.09
2018-03-14T08:01:40.749Z,6.19
2018-03-14T08:02:40.766Z,6.04
2018-03-14T08:03:40.782Z,6.26
2018-03-14T08:04:40.803Z,6.24
2018-03-14T08:05:40.819Z,6.30
2018-03-14T08:06:40.833Z,6.31
2018-03-14T08:07:40.901Z,6.46
2018-03-14T08:08:40.868Z,6.49
2018-03-14T08:09:40.887Z,6.46
2018-03-14T08:10:40.902Z,6.59
2018-03-14T08:11:40.917Z,6.51
2018-03-14T08:12:40.934Z,6.57
2018-03-14T08:13:41.075Z,6.74
2018-03-14T08:14:40.971Z,6.82
2018-03-14T08:15:40.985Z,6.66
2018-03-14T08:16:41.002Z,6.62
2018-03-14T08:17:41.019Z,6.56
2018-03-14T08:18:41.037Z,6.64
2018-03-14T08:19:41.053Z,6.59
2018-03-14T08:20:41.070Z,6.70
2018-03-14T08:21:41.087Z,6.79
2018-03-14T08:22:41.105Z,6.72
2018-03-14T08:23:41.121Z,6.75
2018-03-14T08:24:41.142Z,6.62
2018-03-14T08:25:41.155Z,6.59
2018-03-14T08:26:41.173Z,6.46
2018-03-14T08:27:41.190Z,6.49
2018-03-14T08:28:41.207Z,6.46
2018-03-14T08:29:41.225Z,6.56
2018-03-14T08:30:41.245Z,6.69
2018-03-14T08:31:41.258Z,6.54
2018-03-14T08:32:41.277Z,6.45
2018-03-14T08:33:41.292Z,6.31
2018-03-14T08:34:41.311Z,6.38
2018-03-14T08:35:41.326Z,6.56
2018-03-14T08:36:41.343Z,6.60
2018-03-14T08:37:41.361Z,6.56
2018-03-14T08:38:41.378Z,6.52
2018-03-14T08:39:41.395Z,6.64
2018-03-14T08:40:41.412Z,6.69
2018-03-14T08:41:41.429Z,6.79
2018-03-14T08:42:41.447Z,6.96
2018-03-14T08:43:41.463Z,7.13
2018-03-14T08:44:41.480Z,7.10
2018-03-14T08:45:41.497Z,7.23
2018-03-14T08:46:41.515Z,7.21
2018-03-14T08:47:41.531Z,7.39
2018-03-14T08:48:41.549Z,7.20
2018-03-14T08:49:41.567Z,7.24
2018-03-14T08:50:41.584Z,7.40
2018-03-14T08:51:41.601Z,7.29
2018-03-14T08:52:41.618Z,7.42
2018-03-14T08:53:41.636Z,7.29
2018-03-14T08:54:41.656Z,7.40
2018-03-14T08:55:41.670Z,7.32
2018-03-14T08:56:41.691Z,7.33
2018-03-14T08:57:41.706Z,7.24
2018-03-14T08:58:41.724Z,7.28
2018-03-14T08:59:41.741Z,7.29
2018-03-14T09:00:41.759Z,7.39
2018-03-14T09:01:41.777Z,7.32
2018-03-14T09:02:41.793Z,7.23
2018-03-14T09:03:41.811Z,7.20
2018-03-14T09:04:41.830Z,7.40
2018-03-14T09:05:41.853Z,7.60
2018-03-14T09:06:41.865Z,7.77
2018-03-14T09:07:41.883Z,7.97
2018-03-14T09:08:41.901Z,7.88
2018-03-14T09:09:41.918Z,7.80
2018-03-14T09:10:41.937Z,7.80
2018-03-14T09:11:41.954Z,7.80
2018-03-14T09:12:41.972Z,7.57
2018-03-14T09:13:41.990Z,7.45
2018-03-14T09:14:42.008Z,7.63
2018-03-14T09:15:42.025Z,7.77
2018-03-14T09:16:42.043Z,7.70
2018-03-14T09:17:42.061Z,7.60
2018-03-14T09:18:42.081Z,7.60
2018-03-14T09:19:42.097Z,7.61
2018-03-14T09:20:42.116Z,7.39
2018-03-14T09:21:42.133Z,7.36
2018-03-14T09:22:42.157Z,7.38
2018-03-14T09:23:42.169Z,7.38
2018-03-14T09:24:42.188Z,7.48
2018-03-14T09:25:42.255Z,7.56
2018-03-14T09:26:42.223Z,7.58
2018-03-14T09:27:42.242Z,7.48
2018-03-14T09:28:42.259Z,7.40
2018-03-14T09:29:42.278Z,7.47
2018-03-14T09:30:42.295Z,7.47
2018-03-14T09:31:42.323Z,7.60
2018-03-14T09:32:42.329Z,7.73
2018-03-14T09:33:42.348Z,7.77
2018-03-14T09:34:42.366Z,7.97
2018-03-14T09:35:42.384Z,7.67
2018-03-14T09:36:42.402Z,7.72
2018-03-14T09:37:42.420Z,7.77
2018-03-14T09:38:42.438Z,7.94
2018-03-14T09:39:42.518Z,7.82
2018-03-14T09:40:42.478Z,7.83
2018-03-14T09:41:42.492Z,7.69
2018-03-14T09:42:42.510Z,7.61
2018-03-14T09:43:42.529Z,7.56
2018-03-14T09:44:42.549Z,7.57
2018-03-14T09:45:42.563Z,7.51
2018-03-14T09:46:42.582Z,7.50
2018-03-14T09:47:42.599Z,7.69
2018-03-14T09:48:42.617Z,7.82
2018-03-14T09:49:42.634Z,7.91
2018-03-14T09:50:42.653Z,7.98
2018-03-14T09:51:42.670Z,8.03
2018-03-14T09:52:42.688Z,7.98
2018-03-14T09:53:42.706Z,7.98
2018-03-14T09:54:42.725Z,8.05
2018-03-14T09:55:42.742Z,8.00
2018-03-14T09:56:42.761Z,7.94
2018-03-14T09:57:42.777Z,7.93
2018-03-14T09:58:42.797Z,7.85
2018-03-14T09:59:42.815Z,7.95
2018-03-14T10:00:42.935Z,8.03
2018-03-14T10:01:42.850Z,7.88
2018-03-14T10:02:42.869Z,7.82
2018-03-14T10:03:42.887Z,7.95
2018-03-14T10:04:42.904Z,8.05
2018-03-14T10:05:42.922Z,8.19
2018-03-14T10:06:42.941Z,8.28
2018-03-14T10:07:42.958Z,8.30
2018-03-14T10:08:42.977Z,8.48
2018-03-14T10:09:42.995Z,8.34
2018-03-14T10:10:43.013Z,8.38
2018-03-14T10:11:43.031Z,8.46
2018-03-14T10:12:43.049Z,8.34
2018-03-14T10:13:43.073Z,8.37
2018-03-14T10:14:43.086Z,8.24
2018-03-14T10:15:43.103Z,8.08
2018-03-14T10:16:43.122Z,8.16
2018-03-14T10:17:43.141Z,8.15
2018-03-14T10:18:43.159Z,8.01
2018-03-14T10:19:43.177Z,8.10
2018-03-14T10:20:43.195Z,8.05
2018-03-14T10:21:43.213Z,8.00
2018-03-14T10:22:43.232Z,8.03
2018-03-14T10:23:43.252Z,8.12
2018-03-14T10:24:43.269Z,8.28
2018-03-14T10:25:43.317Z,8.53
2018-03-14T10:26:43.309Z,8.71
2018-03-14T10:27:43.324Z,8.82
2018-03-14T10:28:43.342Z,8.73
2018-03-14T10:29:43.361Z,8.60
2018-03-14T10:30:43.379Z,8.37
2018-03-14T10:31:43.397Z,8.38
2018-03-14T10:32:43.418Z,8.37
2018-03-14T10:33:43.435Z,8.44
2018-03-14T10:34:43.454Z,8.33
2018-03-14T10:35:43.472Z,8.00
2018-03-14T10:36:43.517Z,7.88
2018-03-14T10:37:43.510Z,7.88
2018-03-14T10:38:43.528Z,7.90
2018-03-14T10:39:43.545Z,7.91
2018-03-14T10:40:43.569Z,7.87
2018-03-14T10:41:43.583Z,7.73
2018-03-14T10:42:43.601Z,7.76
2018-03-14T10:43:43.620Z,7.82
2018-03-14T10:44:43.638Z,8.00
2018-03-14T10:45:43.657Z,7.90
2018-03-14T10:46:43.675Z,7.94
2018-03-14T10:47:43.697Z,8.00
2018-03-14T10:48:43.711Z,7.95
2018-03-14T10:49:43.729Z,8.06
2018-03-14T10:50:43.749Z,8.03
2018-03-14T10:51:43.766Z,8.01
2018-03-14T10:52:43.788Z,8.03
2018-03-14T10:53:43.803Z,8.08
2018-03-14T10:54:43.822Z,8.16
2018-03-14T10:55:43.839Z,8.20
2018-03-14T10:56:43.857Z,8.16
2018-03-14T10:57:43.875Z,8.19
2018-03-14T10:58:43.903Z,8.18
2018-03-14T10:59:43.953Z,8.13
2018-03-14T11:00:43.933Z,8.06
2018-03-14T11:01:43.948Z,8.08
2018-03-14T11:02:43.980Z,8.10
2018-03-14T11:03:43.989Z,7.93
2018-03-14T11:04:44.003Z,7.97
2018-03-14T11:05:44.023Z,7.95
2018-03-14T11:06:44.080Z,7.90
2018-03-14T11:07:44.061Z,7.97
2018-03-14T11:08:44.075Z,7.98
2018-03-14T11:09:44.093Z,8.10
2018-03-14T11:10:44.112Z,8.15
2018-03-14T11:11:44.129Z,8.10
2018-03-14T11:12:44.147Z,8.15
2018-03-14T11:13:44.166Z,8.18
2018-03-14T11:14:44.183Z,8.16
2018-03-14T11:15:44.202Z,8.30
2018-03-14T11:16:44.220Z,8.19
2018-03-14T11:17:44.238Z,8.01
2018-03-14T11:18:44.256Z,8.06
2018-03-14T11:19:44.273Z,8.24
2018-03-14T11:20:44.291Z,8.33
2018-03-14T11:21:44.309Z,8.38
2018-03-14T11:22:44.328Z,8.37
2018-03-14T11:23:44.344Z,8.52
2018-03-14T11:24:44.363Z,8.60
2018-03-14T11:25:44.385Z,8.61
2018-03-14T11:26:44.401Z,8.64
2018-03-14T11:27:44.420Z,8.67
2018-03-14T11:28:44.437Z,8.49
2018-03-14T11:29:44.456Z,8.48
2018-03-14T11:30:44.474Z,8.49
2018-03-14T11:31:44.492Z,8.49
2018-03-14T11:32:44.509Z,8.48
2018-03-14T11:33:44.528Z,8.53
2018-03-14T11:34:44.547Z,8.56
2018-03-14T11:35:44.565Z,8.79
2018-03-14T11:36:44.584Z,8.84
2018-03-14T11:37:44.603Z,8.89
2018-03-14T11:38:44.622Z,8.99
2018-03-14T11:39:44.645Z,8.81
2018-03-14T11:40:44.661Z,8.95
2018-03-14T11:41:44.676Z,9.03
2018-03-14T11:42:44.696Z,9.14
2018-03-14T11:43:44.713Z,9.06
2018-03-14T11:44:44.740Z,8.69
2018-03-14T11:45:44.751Z,8.60
2018-03-14T11:46:44.770Z,8.48
2018-03-14T11:47:44.788Z,8.45
2018-03-14T11:48:44.807Z,8.53
2018-03-14T11:49:44.826Z,8.70
2018-03-14T11:50:44.845Z,8.70
2018-03-14T11:51:44.863Z,8.67
2018-03-14T11:52:44.882Z,8.51
2018-03-14T11:53:44.901Z,8.48
2018-03-14T11:54:44.920Z,8.46
2018-03-14T11:55:44.943Z,8.58
2018-03-14T11:56:44.957Z,8.70
2018-03-14T11:57:44.977Z,8.92
2018-03-14T11:58:44.995Z,9.02
2018-03-14T11:59:45.015Z,9.13
2018-03-14T12:00:45.035Z,9.00
2018-03-14T12:01:45.051Z,8.67
2018-03-14T12:02:45.071Z,8.60
2018-03-14T12:03:45.089Z,8.51
2018-03-14T12:04:45.107Z,8.56
2018-03-14T12:05:45.126Z,8.55
2018-03-14T12:06:45.146Z,8.55
2018-03-14T12:07:45.165Z,8.55
2018-03-14T12:08:45.188Z,8.55
2018-03-14T12:09:45.202Z,8.78
2018-03-14T12:10:45.221Z,8.85
2018-03-14T12:11:45.240Z,9.06
2018-03-14T12:12:45.260Z,9.21
2018-03-14T12:13:45.277Z,9.34
2018-03-14T12:14:45.303Z,9.39
2018-03-14T12:15:45.315Z,9.51
2018-03-14T12:16:45.586Z,9.54
2018-03-14T12:17:45.354Z,9.54
2018-03-14T12:18:45.375Z,9.46
2018-03-14T12:19:45.391Z,9.37
2018-03-14T12:20:45.414Z,9.21
2018-03-14T12:21:45.429Z,9.21
2018-03-14T12:22:45.450Z,8.81
2018-03-14T12:23:45.468Z,8.81
2018-03-14T12:24:45.488Z,9.10
2018-03-14T12:25:45.508Z,9.26
2018-03-14T12:26:45.526Z,9.34
2018-03-14T12:27:45.543Z,9.44
2018-03-14T12:28:45.563Z,9.48
2018-03-14T12:29:45.583Z,9.50
2018-03-14T12:30:45.605Z,9.29
2018-03-14T12:31:45.621Z,9.16
2018-03-14T12:32:45.640Z,9.13
2018-03-14T12:33:45.664Z,9.18
2018-03-14T12:34:45.731Z,9.36
2018-03-14T12:35:45.708Z,9.46
2018-03-14T12:36:45.718Z,9.68
2018-03-14T12:37:45.737Z,9.36
2018-03-14T12:38:45.758Z,8.91
2018-03-14T12:39:45.780Z,9.00
2018-03-14T12:40:45.796Z,9.19
2018-03-14T12:41:45.819Z,9.25
2018-03-14T12:42:45.835Z,9.32
2018-03-14T12:43:45.860Z,9.29
2018-03-14T12:44:45.874Z,9.04
2018-03-14T12:45:45.893Z,8.88
2018-03-14T12:46:45.913Z,8.97
2018-03-14T12:47:45.931Z,9.02
2018-03-14T12:48:45.950Z,9.16
2018-03-14T12:49:45.971Z,9.08
2018-03-14T12:50:45.993Z,9.00
2018-03-14T12:51:46.008Z,9.10
2018-03-14T12:52:46.028Z,9.16
2018-03-14T12:53:46.050Z,9.10
2018-03-14T12:54:46.067Z,9.02
2018-03-14T12:55:46.087Z,9.13
2018-03-14T12:56:46.106Z,9.11
2018-03-14T12:57:46.124Z,9.13
2018-03-14T12:58:46.144Z,9.18
2018-03-14T12:59:46.162Z,9.18
2018-03-14T13:00:46.182Z,9.04
2018-03-14T13:01:46.205Z,9.10
2018-03-14T13:02:46.220Z,9.32
2018-03-14T13:03:46.239Z,9.39
2018-03-14T13:04:46.258Z,9.32
2018-03-14T13:05:46.278Z,9.29
2018-03-14T13:06:46.298Z,9.21
2018-03-14T13:07:46.315Z,9.21
2018-03-14T13:08:46.333Z,9.37
2018-03-14T13:09:46.354Z,9.43
2018-03-14T13:10:46.374Z,9.31
2018-03-14T13:11:46.559Z,9.08
2018-03-14T13:12:46.412Z,9.22
2018-03-14T13:13:46.432Z,9.19
2018-03-14T13:14:46.456Z,9.14
2018-03-14T13:15:46.469Z,9.08
2018-03-14T13:16:46.489Z,9.13
2018-03-14T13:17:46.508Z,9.25
2018-03-14T13:18:46.529Z,9.39